Time;durP1;ratioP1;P1;durP2;ratioP2;P2;SDS_P1;SDS_P2;PMS_P1;PMS_P2;Temp;Humidity;BMP_temperature;BMP_pressure;BME280_temperature;BME280_humidity;BME280_pressure;Samples;Min_cycle;Max_cycle;Signal;HPM_P1;HPM_P2
2022/04/08 00:02:23;;;;;;;11.17;1.27;;;;;;;;;;4982857;28;20221;-61
2022/04/08 00:04:48;;;;;;;8.87;1.30;;;;;;;;;;4984366;28;20225;-61
2022/04/08 00:07:14;;;;;;;9.70;1.27;;;;;;;;;;4983582;28;20224;-61
2022/04/08 00:09:39;;;;;;;8.77;1.40;;;;;;;;;;4983620;28;21341;-61
2022/04/08 00:12:05;;;;;;;10.23;1.30;;;;;;;;;;4983462;28;20221;-61
2022/04/08 00:14:32;;;;;;;16.67;2.37;;;;;;;;;;5002881;28;20238;-61
2022/04/08 00:16:57;;;;;;;13.43;1.50;;;;;;;;;;4994839;28;20481;-61
2022/04/08 00:19:22;;;;;;;9.90;1.30;;;;;;;;;;4994218;28;20216;-61
2022/04/08 00:21:48;;;;;;;6.37;1.17;;;;;;;;;;4996085;28;20232;-61
2022/04/08 00:24:14;;;;;;;8.03;1.53;;;;;;;;;;4999942;28;20212;-61
2022/04/08 00:26:39;;;;;;;6.63;1.03;;;;;;;;;;5003259;28;21280;-61
2022/04/08 00:29:04;;;;;;;9.10;1.50;;;;;;;;;;5002334;28;20251;-61
2022/04/08 00:31:30;;;;;;;9.27;1.30;;;;;;;;;;5002082;28;20224;-61
2022/04/08 00:33:55;;;;;;;6.00;0.87;;;;;;;;;;5003098;28;20217;-61
2022/04/08 00:36:21;;;;;;;10.03;1.40;;;;;;;;;;5001660;28;20212;-61
2022/04/08 00:38:46;;;;;;;10.60;1.00;;;;;;;;;;4997878;28;20232;-61
2022/04/08 00:41:13;;;;;;;9.70;1.80;;;;;;;;;;4990898;28;20680;-60
2022/04/08 00:43:39;;;;;;;8.70;1.83;;;;;;;;;;4975397;28;20205;-61
2022/04/08 00:46:06;;;;;;;8.97;1.40;;;;;;;;;;4998769;28;20519;-61
2022/04/08 00:48:31;;;;;;;8.03;1.23;;;;;;;;;;4987655;28;20548;-61
2022/04/08 00:50:56;;;;;;;8.60;1.20;;;;;;;;;;4983059;28;20227;-61
2022/04/08 00:53:22;;;;;;;7.73;1.30;;;;;;;;;;4982758;28;20236;-61
2022/04/08 00:55:47;;;;;;;7.30;1.50;;;;;;;;;;4983559;28;20217;-62
2022/04/08 00:58:12;;;;;;;8.43;1.50;;;;;;;;;;4981978;28;20261;-61
2022/04/08 01:00:38;;;;;;;6.77;1.50;;;;;;;;;;4993905;28;20763;-61
2022/04/08 01:03:03;;;;;;;5.90;1.20;;;;;;;;;;4992516;28;20208;-61
2022/04/08 01:05:29;;;;;;;8.27;1.40;;;;;;;;;;4994180;28;20408;-61
2022/04/08 01:07:55;;;;;;;8.40;1.40;;;;;;;;;;4996748;28;20829;-61
2022/04/08 01:10:21;;;;;;;12.47;1.93;;;;;;;;;;5001826;28;20627;-61
2022/04/08 01:12:47;;;;;;;10.70;1.33;;;;;;;;;;5001793;28;20259;-61
2022/04/08 01:15:13;;;;;;;7.67;1.53;;;;;;;;;;5001703;28;20275;-61
2022/04/08 01:17:38;;;;;;;11.10;1.97;;;;;;;;;;5002597;28;20550;-61
2022/04/08 01:20:04;;;;;;;6.87;1.60;;;;;;;;;;5001027;28;20208;-61
2022/04/08 01:22:29;;;;;;;8.03;1.40;;;;;;;;;;5002611;28;20736;-61
2022/04/08 01:24:58;;;;;;;5.55;1.38;;;;;;;;;;4994675;28;20224;-61
2022/04/08 01:27:23;;;;;;;10.17;1.70;;;;;;;;;;4991835;28;20216;-61
2022/04/08 01:29:49;;;;;;;11.73;1.70;;;;;;;;;;4993772;28;20216;-61
2022/04/08 01:32:15;;;;;;;13.30;1.70;;;;;;;;;;5000468;28;20270;-61
2022/04/08 01:34:40;;;;;;;13.27;1.83;;;;;;;;;;5001530;28;20745;-61
2022/04/08 01:37:06;;;;;;;10.70;1.90;;;;;;;;;;5004727;28;20208;-61
2022/04/08 01:39:31;;;;;;;9.88;1.50;;;;;;;;;;5005964;28;20227;-61
2022/04/08 01:41:56;;;;;;;10.00;1.33;;;;;;;;;;4996072;28;20213;-61
2022/04/08 01:44:21;;;;;;;8.80;1.60;;;;;;;;;;4986206;28;20635;-61
2022/04/08 01:46:47;;;;;;;14.53;2.00;;;;;;;;;;4998435;28;20249;-61
2022/04/08 01:49:12;;;;;;;11.30;1.50;;;;;;;;;;4978001;28;20279;-61
2022/04/08 01:51:37;;;;;;;11.07;1.70;;;;;;;;;;4978881;28;20232;-61
2022/04/08 01:54:03;;;;;;;11.70;1.63;;;;;;;;;;4981863;28;20221;-61
2022/04/08 01:56:28;;;;;;;9.87;1.80;;;;;;;;;;4986691;28;20299;-60
2022/04/08 01:58:53;;;;;;;8.53;1.67;;;;;;;;;;4986482;28;20229;-61
2022/04/08 02:01:19;;;;;;;11.27;1.80;;;;;;;;;;4993810;28;20685;-61
2022/04/08 02:03:44;;;;;;;12.37;2.07;;;;;;;;;;4986488;28;20228;-61
2022/04/08 02:06:09;;;;;;;11.63;1.97;;;;;;;;;;4986229;28;20260;-61
2022/04/08 02:08:34;;;;;;;12.13;1.83;;;;;;;;;;4983708;28;20221;-61
2022/04/08 02:11:00;;;;;;;11.77;1.90;;;;;;;;;;4978762;28;20283;-61
2022/04/08 02:13:25;;;;;;;15.80;2.10;;;;;;;;;;4977724;28;20217;-61
2022/04/08 02:15:50;;;;;;;15.47;1.70;;;;;;;;;;4978886;28;20217;-61
2022/04/08 02:18:16;;;;;;;16.03;2.03;;;;;;;;;;4985748;28;20696;-61
2022/04/08 02:20:41;;;;;;;14.30;2.10;;;;;;;;;;4985944;28;20316;-61
2022/04/08 02:23:06;;;;;;;13.93;1.98;;;;;;;;;;4985335;28;20209;-61
2022/04/08 02:25:32;;;;;;;16.40;2.00;;;;;;;;;;5003378;28;20694;-61
2022/04/08 02:27:57;;;;;;;10.93;1.97;;;;;;;;;;5005140;28;20212;-61
2022/04/08 02:30:23;;;;;;;13.43;2.00;;;;;;;;;;5003832;28;20200;-61
2022/04/08 02:32:48;;;;;;;16.63;2.03;;;;;;;;;;4998662;28;20216;-61
2022/04/08 02:35:14;;;;;;;10.80;1.53;;;;;;;;;;4995482;28;20220;-61
2022/04/08 02:37:39;;;;;;;10.88;2.00;;;;;;;;;;4996933;28;21078;-61
2022/04/08 02:40:05;;;;;;;11.30;1.70;;;;;;;;;;5002301;28;20260;-61
2022/04/08 02:42:31;;;;;;;12.05;1.92;;;;;;;;;;5000402;28;20217;-61
2022/04/08 02:44:57;;;;;;;13.77;2.15;;;;;;;;;;4984956;28;20223;-61
2022/04/08 02:47:22;;;;;;;12.50;1.83;;;;;;;;;;4984564;28;20248;-61
2022/04/08 02:49:47;;;;;;;11.47;1.60;;;;;;;;;;4985666;28;20205;-61
2022/04/08 02:52:13;;;;;;;11.50;1.77;;;;;;;;;;4984278;28;20295;-61
2022/04/08 02:54:38;;;;;;;13.33;1.90;;;;;;;;;;4982150;28;20209;-61
2022/04/08 02:57:03;;;;;;;12.67;1.83;;;;;;;;;;4976450;28;20213;-60
2022/04/08 02:59:28;;;;;;;15.30;2.87;;;;;;;;;;4977640;28;20780;-61
2022/04/08 03:01:54;;;;;;;11.70;1.90;;;;;;;;;;4981236;28;20217;-61
2022/04/08 03:04:19;;;;;;;13.47;2.00;;;;;;;;;;4984275;28;20680;-60
2022/04/08 03:06:44;;;;;;;12.80;1.70;;;;;;;;;;4985011;28;20727;-61
2022/04/08 03:09:10;;;;;;;11.60;2.17;;;;;;;;;;4985107;28;20296;-61
2022/04/08 03:11:35;;;;;;;12.20;2.03;;;;;;;;;;4984553;28;20209;-61
2022/04/08 03:14:02;;;;;;;17.07;2.90;;;;;;;;;;5002053;28;20214;-61
2022/04/08 03:16:27;;;;;;;14.13;2.13;;;;;;;;;;5003280;28;20221;-61
2022/04/08 03:18:53;;;;;;;10.10;1.80;;;;;;;;;;4995678;28;20263;-61
2022/04/08 03:21:18;;;;;;;13.93;2.20;;;;;;;;;;4995902;28;20271;-61
2022/04/08 03:23:44;;;;;;;17.30;2.10;;;;;;;;;;4997230;28;20231;-60
2022/04/08 03:26:09;;;;;;;13.53;2.13;;;;;;;;;;5002809;28;20538;-61
2022/04/08 03:28:35;;;;;;;12.95;2.00;;;;;;;;;;5003882;28;20227;-60
2022/04/08 03:31:01;;;;;;;13.93;2.10;;;;;;;;;;5003838;28;20216;-61
2022/04/08 03:33:26;;;;;;;13.20;1.70;;;;;;;;;;5003269;28;20774;-61
2022/04/08 03:35:51;;;;;;;13.33;1.80;;;;;;;;;;5003905;28;20219;-61
2022/04/08 03:38:17;;;;;;;11.03;2.10;;;;;;;;;;5003389;28;20282;-61
2022/04/08 03:40:42;;;;;;;11.17;1.60;;;;;;;;;;4997251;28;20719;-61
2022/04/08 03:43:07;;;;;;;11.10;1.60;;;;;;;;;;4976941;28;20287;-60
2022/04/08 03:45:32;;;;;;;14.57;1.70;;;;;;;;;;4976605;28;20213;-60
2022/04/08 03:47:58;;;;;;;9.60;1.60;;;;;;;;;;4981555;28;20217;-60
2022/04/08 03:50:23;;;;;;;10.27;1.60;;;;;;;;;;4983804;28;20241;-60
2022/04/08 03:52:49;;;;;;;7.40;1.70;;;;;;;;;;4984629;28;20309;-60
2022/04/08 03:55:14;;;;;;;7.93;1.30;;;;;;;;;;5001996;28;20714;-60
2022/04/08 03:57:39;;;;;;;7.30;1.30;;;;;;;;;;5002766;28;20224;-60
2022/04/08 04:00:05;;;;;;;9.93;1.40;;;;;;;;;;4982576;28;20213;-60
2022/04/08 04:02:31;;;;;;;8.07;1.33;;;;;;;;;;4980402;28;20307;-61
2022/04/08 04:04:59;;;;;;;7.70;1.43;;;;;;;;;;4976633;28;20224;-61
2022/04/08 04:07:25;;;;;;;9.90;1.60;;;;;;;;;;4994173;28;20255;-60
2022/04/08 04:09:50;;;;;;;7.83;1.60;;;;;;;;;;4997283;28;20334;-61
2022/04/08 04:12:15;;;;;;;6.13;1.30;;;;;;;;;;5002999;28;20684;-61
2022/04/08 04:14:41;;;;;;;11.10;2.27;;;;;;;;;;5002461;28;20227;-61
2022/04/08 04:17:06;;;;;;;8.67;1.50;;;;;;;;;;5002777;28;20790;-61
2022/04/08 04:19:31;;;;;;;10.60;1.50;;;;;;;;;;5003376;28;20781;-61
2022/04/08 04:21:57;;;;;;;9.57;1.30;;;;;;;;;;5002615;28;20221;-61
2022/04/08 04:24:22;;;;;;;10.20;1.70;;;;;;;;;;5002259;28;20763;-61
2022/04/08 04:26:47;;;;;;;10.53;1.73;;;;;;;;;;4995159;28;20212;-61
2022/04/08 04:29:12;;;;;;;8.17;1.50;;;;;;;;;;4993585;28;21226;-61
2022/04/08 04:31:38;;;;;;;9.67;1.67;;;;;;;;;;4995630;28;20213;-61
2022/04/08 04:34:04;;;;;;;9.07;1.47;;;;;;;;;;5002004;28;20266;-61
2022/04/08 04:36:29;;;;;;;9.10;1.60;;;;;;;;;;5002488;28;20217;-61
2022/04/08 04:38:54;;;;;;;9.50;1.77;;;;;;;;;;5002761;28;20249;-61
2022/04/08 04:41:20;;;;;;;12.20;1.67;;;;;;;;;;4998086;28;24279;-61
2022/04/08 04:43:45;;;;;;;9.23;1.50;;;;;;;;;;4983032;28;20221;-61
2022/04/08 04:46:10;;;;;;;11.13;1.73;;;;;;;;;;4982770;28;20759;-61
2022/04/08 04:48:35;;;;;;;9.00;1.50;;;;;;;;;;4978203;28;20201;-62
2022/04/08 04:51:01;;;;;;;7.40;1.47;;;;;;;;;;4974533;28;20275;-62
2022/04/08 04:53:26;;;;;;;7.13;1.53;;;;;;;;;;4992990;28;20240;-61
2022/04/08 04:55:51;;;;;;;9.87;1.50;;;;;;;;;;4999594;28;20209;-61
2022/04/08 04:58:17;;;;;;;9.23;1.50;;;;;;;;;;4995876;28;20217;-61
2022/04/08 05:00:42;;;;;;;9.43;1.40;;;;;;;;;;4983116;28;20213;-61
2022/04/08 05:03:08;;;;;;;7.70;1.50;;;;;;;;;;4982879;28;20228;-61
2022/04/08 05:05:34;;;;;;;9.87;1.50;;;;;;;;;;4982461;28;20212;-61
2022/04/08 05:08:01;;;;;;;8.70;1.37;;;;;;;;;;5000797;28;20220;-61
2022/04/08 05:10:26;;;;;;;8.03;1.40;;;;;;;;;;5014241;28;20860;-61
2022/04/08 05:12:51;;;;;;;6.23;1.40;;;;;;;;;;4993967;28;20410;-61
2022/04/08 05:15:17;;;;;;;6.83;1.60;;;;;;;;;;4994048;28;20220;-61
2022/04/08 05:17:44;;;;;;;9.13;1.60;;;;;;;;;;4995900;28;20248;-61
2022/04/08 05:20:09;;;;;;;7.33;1.50;;;;;;;;;;5002182;28;20303;-61
2022/04/08 05:22:34;;;;;;;6.63;1.70;;;;;;;;;;5002257;28;20330;-61
2022/04/08 05:25:00;;;;;;;9.97;1.70;;;;;;;;;;5001741;28;20294;-61
2022/04/08 05:27:25;;;;;;;8.87;1.60;;;;;;;;;;5002202;28;20580;-61
2022/04/08 05:29:51;;;;;;;11.20;1.80;;;;;;;;;;5002041;28;20291;-61
2022/04/08 05:32:16;;;;;;;11.33;1.83;;;;;;;;;;5001086;28;20220;-61
2022/04/08 05:34:41;;;;;;;11.43;2.07;;;;;;;;;;4976711;28;20221;-61
2022/04/08 05:37:07;;;;;;;13.03;1.90;;;;;;;;;;4974822;28;20747;-61
2022/04/08 05:39:33;;;;;;;8.67;2.00;;;;;;;;;;4975341;28;20236;-61
2022/04/08 05:41:58;;;;;;;9.97;2.00;;;;;;;;;;4982889;28;20209;-61
2022/04/08 05:44:23;;;;;;;8.40;2.33;;;;;;;;;;4982157;28;20209;-60
2022/04/08 05:46:48;;;;;;;11.55;2.28;;;;;;;;;;4982528;28;20225;-61
2022/04/08 05:49:14;;;;;;;9.80;2.13;;;;;;;;;;4982256;28;20216;-61
2022/04/08 05:51:39;;;;;;;12.77;2.80;;;;;;;;;;4982699;28;20335;-61
2022/04/08 05:54:04;;;;;;;13.85;2.90;;;;;;;;;;4981849;28;20275;-61
2022/04/08 05:56:30;;;;;;;11.38;2.10;;;;;;;;;;4978063;28;20221;-61
2022/04/08 05:58:57;;;;;;;11.00;2.30;;;;;;;;;;4975015;28;20272;-61
2022/04/08 06:01:22;;;;;;;13.07;2.70;;;;;;;;;;4981565;28;21256;-61
2022/04/08 06:03:48;;;;;;;15.55;2.70;;;;;;;;;;4979945;28;20703;-61
2022/04/08 06:06:13;;;;;;;14.60;2.50;;;;;;;;;;5001303;28;20894;-61
2022/04/08 06:08:38;;;;;;;11.75;2.38;;;;;;;;;;5001658;28;20212;-61
2022/04/08 06:11:03;;;;;;;10.50;2.25;;;;;;;;;;5001483;28;20303;-61
2022/04/08 06:13:29;;;;;;;10.68;2.10;;;;;;;;;;4983883;28;21195;-59
2022/04/08 06:15:55;;;;;;;10.63;2.30;;;;;;;;;;4981646;28;20428;-59
2022/04/08 06:18:20;;;;;;;10.15;2.22;;;;;;;;;;4998225;28;20243;-62
2022/04/08 06:20:46;;;;;;;9.88;1.85;;;;;;;;;;4989505;28;20217;-61
2022/04/08 06:23:11;;;;;;;11.20;2.00;;;;;;;;;;4974838;28;20316;-61
2022/04/08 06:25:36;;;;;;;12.07;2.30;;;;;;;;;;4980984;28;20212;-60
2022/04/08 06:28:03;;;;;;;7.93;1.77;;;;;;;;;;4984854;28;21046;-60
2022/04/08 06:30:28;;;;;;;11.32;2.55;;;;;;;;;;4988688;28;20352;-60
2022/04/08 06:32:54;;;;;;;17.20;3.10;;;;;;;;;;4985645;28;20350;-60
2022/04/08 06:35:19;;;;;;;7.32;2.03;;;;;;;;;;4984324;28;21110;-61
2022/04/08 06:37:45;;;;;;;12.18;2.08;;;;;;;;;;4984977;28;20568;-61
2022/04/08 06:40:10;;;;;;;9.27;1.90;;;;;;;;;;4984754;28;20220;-61
2022/04/08 06:42:36;;;;;;;11.63;2.45;;;;;;;;;;4978605;28;20225;-61
2022/04/08 06:45:01;;;;;;;11.98;1.95;;;;;;;;;;4978036;28;20809;-62
2022/04/08 06:47:26;;;;;;;9.02;2.45;;;;;;;;;;4979830;28;20221;-61
2022/04/08 06:49:52;;;;;;;8.95;2.38;;;;;;;;;;4983635;28;20804;-61
2022/04/08 06:52:17;;;;;;;12.93;2.67;;;;;;;;;;4985613;28;20233;-61
2022/04/08 06:54:42;;;;;;;7.45;1.90;;;;;;;;;;4985166;28;20224;-61
2022/04/08 06:57:08;;;;;;;8.90;2.20;;;;;;;;;;4984809;28;20209;-62
2022/04/08 06:59:33;;;;;;;9.88;2.63;;;;;;;;;;4986850;28;20315;-65
2022/04/08 07:01:59;;;;;;;12.90;2.47;;;;;;;;;;5005694;28;20228;-63
2022/04/08 07:04:25;;;;;;;9.23;2.38;;;;;;;;;;5024263;28;20212;-61
2022/04/08 07:06:51;;;;;;;7.80;1.70;;;;;;;;;;5034733;28;20262;-62
2022/04/08 07:09:16;;;;;;;10.18;1.90;;;;;;;;;;5034183;28;20212;-62
2022/04/08 07:11:41;;;;;;;7.00;1.75;;;;;;;;;;5033716;28;20250;-62
2022/04/08 07:14:07;;;;;;;11.15;2.33;;;;;;;;;;5033958;28;20754;-62
2022/04/08 07:16:32;;;;;;;7.32;1.90;;;;;;;;;;5034388;28;20208;-62
2022/04/08 07:18:58;;;;;;;7.50;1.95;;;;;;;;;;5033242;28;20228;-61
2022/04/08 07:21:23;;;;;;;12.27;2.78;;;;;;;;;;5033759;28;20651;-61
2022/04/08 07:23:48;;;;;;;9.38;2.17;;;;;;;;;;5034247;28;20295;-63
2022/04/08 07:26:14;;;;;;;11.98;2.03;;;;;;;;;;5033275;28;20215;-62
2022/04/08 07:28:39;;;;;;;9.23;2.13;;;;;;;;;;5033995;28;20208;-63
2022/04/08 07:31:05;;;;;;;10.13;2.03;;;;;;;;;;5033694;28;20675;-63
2022/04/08 07:33:30;;;;;;;8.35;2.13;;;;;;;;;;5032905;28;20204;-64
2022/04/08 07:35:58;;;;;;;8.40;2.17;;;;;;;;;;5033915;28;20679;-64
2022/04/08 07:38:24;;;;;;;8.20;2.05;;;;;;;;;;5032921;28;20259;-63
2022/04/08 07:40:49;;;;;;;10.38;2.00;;;;;;;;;;5033115;28;20239;-60
2022/04/08 07:43:15;;;;;;;9.68;2.03;;;;;;;;;;5013129;28;20208;-62
2022/04/08 07:45:40;;;;;;;10.80;2.30;;;;;;;;;;5013176;28;20209;-64
2022/04/08 07:48:06;;;;;;;11.77;3.05;;;;;;;;;;5013413;28;20209;-62
2022/04/08 07:50:32;;;;;;;10.20;2.83;;;;;;;;;;5013924;28;20302;-61
2022/04/08 07:52:58;;;;;;;13.63;3.47;;;;;;;;;;5011933;28;20641;-61
2022/04/08 07:55:24;;;;;;;6.72;1.80;;;;;;;;;;5012952;28;20671;-61
2022/04/08 07:57:50;;;;;;;9.32;2.38;;;;;;;;;;5013199;28;20319;-61
2022/04/08 08:00:17;;;;;;;10.90;3.08;;;;;;;;;;5009741;28;20668;-61
2022/04/08 08:02:42;;;;;;;10.07;2.13;;;;;;;;;;5013702;28;20220;-61
2022/04/08 08:05:09;;;;;;;6.47;2.20;;;;;;;;;;5012976;28;20738;-62
2022/04/08 08:07:44;;;;;;;5.90;1.80;;;;;;;;;;5012965;28;20213;-61
2022/04/08 08:10:09;;;;;;;7.72;2.92;;;;;;;;;;5012867;28;20227;-62
2022/04/08 08:12:34;;;;;;;9.48;2.83;;;;;;;;;;5013682;28;20216;-70
2022/04/08 08:14:59;;;;;;;16.80;7.32;;;;;;;;;;5012584;28;20274;-72
2022/04/08 08:17:25;;;;;;;8.73;2.22;;;;;;;;;;5013122;28;20222;-72
2022/04/08 08:19:51;;;;;;;9.25;3.00;;;;;;;;;;5013408;28;20224;-67
2022/04/08 08:22:16;;;;;;;8.27;2.45;;;;;;;;;;5012386;28;20208;-70
2022/04/08 08:24:41;;;;;;;10.35;2.00;;;;;;;;;;5012250;28;20220;-71
2022/04/08 08:27:06;;;;;;;8.80;2.40;;;;;;;;;;5013036;28;20208;-68
2022/04/08 08:29:32;;;;;;;7.68;1.90;;;;;;;;;;5012533;28;20292;-68
2022/04/08 08:31:57;;;;;;;9.93;1.90;;;;;;;;;;5013361;28;20619;-67
2022/04/08 08:34:22;;;;;;;7.80;1.88;;;;;;;;;;5012933;28;20223;-70
2022/04/08 08:36:48;;;;;;;7.38;2.08;;;;;;;;;;5012361;28;20212;-71
2022/04/08 08:39:13;;;;;;;5.93;1.65;;;;;;;;;;5012706;28;20679;-70
2022/04/08 08:41:38;;;;;;;4.70;1.52;;;;;;;;;;5012337;28;20204;-70
2022/04/08 08:44:04;;;;;;;9.10;1.73;;;;;;;;;;5011387;28;20231;-70
2022/04/08 08:46:29;;;;;;;16.92;2.70;;;;;;;;;;5012543;28;20201;-69
2022/04/08 08:48:54;;;;;;;11.50;1.90;;;;;;;;;;5011101;28;20217;-69
2022/04/08 08:51:20;;;;;;;8.45;1.73;;;;;;;;;;5012046;28;20649;-68
2022/04/08 08:53:45;;;;;;;13.43;2.85;;;;;;;;;;5013049;28;20216;-69
2022/04/08 08:56:10;;;;;;;12.20;2.15;;;;;;;;;;5010670;28;20228;-68
2022/04/08 08:58:37;;;;;;;10.35;1.80;;;;;;;;;;5012904;28;20593;-69
2022/04/08 09:01:02;;;;;;;9.98;2.00;;;;;;;;;;5012637;28;20278;-70
2022/04/08 09:03:29;;;;;;;13.40;2.73;;;;;;;;;;5012154;28;20208;-68
2022/04/08 09:05:55;;;;;;;15.05;2.30;;;;;;;;;;5012747;28;20304;-68
2022/04/08 09:08:21;;;;;;;18.85;2.85;;;;;;;;;;5012362;28;20299;-68
2022/04/08 09:10:48;;;;;;;13.27;2.30;;;;;;;;;;5012234;28;20212;-68
2022/04/08 09:13:16;;;;;;;13.43;2.78;;;;;;;;;;5011572;28;20216;-69
2022/04/08 09:15:51;;;;;;;25.65;4.50;;;;;;;;;;5012066;28;20311;-68
2022/04/08 09:18:16;;;;;;;14.57;2.55;;;;;;;;;;5011071;28;20228;-68
2022/04/08 09:20:42;;;;;;;12.85;2.75;;;;;;;;;;5011793;28;20223;-69
2022/04/08 09:23:08;;;;;;;8.63;2.05;;;;;;;;;;5000762;28;20790;-68
2022/04/08 09:25:34;;;;;;;7.63;1.80;;;;;;;;;;5011680;28;20220;-68
2022/04/08 09:28:04;;;;;;;6.00;1.80;;;;;;;;;;5017501;28;20354;-69
2022/04/08 09:30:29;;;;;;;9.85;2.45;;;;;;;;;;5031818;28;20207;-68
2022/04/08 09:32:55;;;;;;;7.03;1.90;;;;;;;;;;5031627;28;20326;-67
2022/04/08 09:35:20;;;;;;;8.77;2.00;;;;;;;;;;5031863;28;20362;-67
2022/04/08 09:37:56;;;;;;;12.20;2.00;;;;;;;;;;5031612;28;20258;-67
2022/04/08 09:40:22;;;;;;;10.52;2.03;;;;;;;;;;5031531;28;20211;-67
2022/04/08 09:42:47;;;;;;;11.20;2.30;;;;;;;;;;5029866;28;20370;-67
2022/04/08 09:45:13;;;;;;;9.32;1.98;;;;;;;;;;5008968;28;20221;-67
2022/04/08 09:47:38;;;;;;;11.20;2.13;;;;;;;;;;5012595;28;20220;-67
2022/04/08 09:50:05;;;;;;;11.80;2.38;;;;;;;;;;5011713;28;20212;-67
2022/04/08 09:52:31;;;;;;;10.63;2.13;;;;;;;;;;5010839;28;20224;-67
2022/04/08 09:54:57;;;;;;;8.65;2.25;;;;;;;;;;5012262;28;20592;-68
2022/04/08 09:57:22;;;;;;;9.07;2.33;;;;;;;;;;5013402;28;20659;-68
2022/04/08 09:59:47;;;;;;;9.45;2.05;;;;;;;;;;5014047;28;20220;-68
2022/04/08 10:02:14;;;;;;;11.93;2.35;;;;;;;;;;5014280;28;20636;-68
2022/04/08 10:04:39;;;;;;;10.85;2.13;;;;;;;;;;5015931;28;20212;-68
2022/04/08 10:07:05;;;;;;;10.93;2.17;;;;;;;;;;5014457;28;20228;-68
2022/04/08 10:09:32;;;;;;;7.20;1.75;;;;;;;;;;5015903;28;20212;-67
2022/04/08 10:11:59;;;;;;;8.80;1.90;;;;;;;;;;5011610;28;20566;-68
2022/04/08 10:14:30;;;;;;;8.90;2.20;;;;;;;;;;5013261;28;20212;-68
2022/04/08 10:16:55;;;;;;;9.63;2.00;;;;;;;;;;5015726;28;20585;-69
2022/04/08 10:19:22;;;;;;;10.40;2.50;;;;;;;;;;5015206;28;20232;-68
2022/04/08 10:21:52;;;;;;;12.10;2.35;;;;;;;;;;5014343;28;20219;-68
2022/04/08 10:24:21;;;;;;;9.13;2.08;;;;;;;;;;5014770;28;20294;-68
2022/04/08 10:26:57;;;;;;;10.82;1.95;;;;;;;;;;5015613;28;20243;-69
2022/04/08 10:29:22;;;;;;;7.93;2.10;;;;;;;;;;5013074;28;20212;-68
2022/04/08 10:31:54;;;;;;;10.65;2.92;;;;;;;;;;5015368;28;20271;-69
2022/04/08 10:34:20;;;;;;;14.07;4.90;;;;;;;;;;5004630;28;20211;-68
2022/04/08 10:36:45;;;;;;;10.52;5.03;;;;;;;;;;4994050;28;20217;-69
2022/04/08 10:39:12;;;;;;;6.10;2.08;;;;;;;;;;4995075;28;20622;-69
2022/04/08 10:41:47;;;;;;;8.85;2.28;;;;;;;;;;4994863;28;20639;-69
2022/04/08 10:44:12;;;;;;;7.13;2.05;;;;;;;;;;4995348;28;20212;-69
2022/04/08 10:46:47;;;;;;;8.68;2.30;;;;;;;;;;4995546;28;20547;-69
2022/04/08 10:49:12;;;;;;;6.38;2.28;;;;;;;;;;4994501;28;20234;-69
2022/04/08 10:51:42;;;;;;;7.75;2.50;;;;;;;;;;4994858;28;20312;-69
2022/04/08 10:54:08;;;;;;;11.25;2.30;;;;;;;;;;4994902;28;20213;-69
2022/04/08 10:56:34;;;;;;;9.20;2.30;;;;;;;;;;4994794;28;20220;-70
2022/04/08 10:58:59;;;;;;;7.72;2.03;;;;;;;;;;5005914;28;20232;-69
2022/04/08 11:01:25;;;;;;;9.48;2.63;;;;;;;;;;5013271;28;20559;-69
2022/04/08 11:03:52;;;;;;;8.52;2.20;;;;;;;;;;5014334;28;20208;-69
2022/04/08 11:06:19;;;;;;;6.15;2.20;;;;;;;;;;5029322;28;20275;-69
2022/04/08 11:08:44;;;;;;;8.98;2.38;;;;;;;;;;5014223;28;20224;-69
2022/04/08 11:11:09;;;;;;;7.38;2.20;;;;;;;;;;5013615;28;20235;-69
2022/04/08 11:13:34;;;;;;;8.48;2.20;;;;;;;;;;5014512;28;20208;-69
2022/04/08 11:16:00;;;;;;;10.38;2.50;;;;;;;;;;5014807;28;20263;-69
2022/04/08 11:18:25;;;;;;;12.38;2.33;;;;;;;;;;5013532;28;20247;-69
2022/04/08 11:20:50;;;;;;;9.82;2.63;;;;;;;;;;5014616;28;20220;-69
2022/04/08 11:23:32;;;;;;;9.48;2.47;;;;;;;;;;5013693;28;20212;-69
2022/04/08 11:25:58;;;;;;;9.68;2.83;;;;;;;;;;5014157;28;20212;-69
2022/04/08 11:28:23;;;;;;;9.85;3.03;;;;;;;;;;5013967;28;20216;-70
2022/04/08 11:30:55;;;;;;;11.73;2.67;;;;;;;;;;5013740;28;20213;-70
2022/04/08 11:33:21;;;;;;;7.50;2.63;;;;;;;;;;5014096;28;20627;-70
2022/04/08 11:35:46;;;;;;;10.60;2.85;;;;;;;;;;5014442;28;20209;-70
2022/04/08 11:38:12;;;;;;;10.27;2.40;;;;;;;;;;5012793;28;20703;-70
2022/04/08 11:40:37;;;;;;;9.35;2.80;;;;;;;;;;5013604;28;20312;-67
2022/04/08 11:43:02;;;;;;;7.65;2.53;;;;;;;;;;5013393;28;20263;-69
2022/04/08 11:45:28;;;;;;;10.93;3.00;;;;;;;;;;5013383;28;20247;-79
2022/04/08 11:47:53;;;;;;;9.73;2.50;;;;;;;;;;5012657;28;20695;-76
2022/04/08 11:50:24;;;;;;;9.88;2.90;;;;;;;;;;5013725;28;20205;-76
2022/04/08 11:52:53;;;;;;;14.43;4.80;;;;;;;;;;5027373;28;20224;-72
2022/04/08 11:55:21;;;;;;;8.95;2.90;;;;;;;;;;5012951;28;20216;-73
2022/04/08 11:57:46;;;;;;;9.10;2.40;;;;;;;;;;5013982;28;20224;-73
2022/04/08 12:00:12;;;;;;;8.75;2.70;;;;;;;;;;5012351;28;20216;-72
2022/04/08 12:02:37;;;;;;;8.70;2.63;;;;;;;;;;5013650;28;20602;-73
2022/04/08 12:05:03;;;;;;;11.88;4.45;;;;;;;;;;5013678;28;20217;-72
2022/04/08 12:07:28;;;;;;;10.57;3.28;;;;;;;;;;5012788;28;20208;-72
2022/04/08 12:09:54;;;;;;;8.80;2.95;;;;;;;;;;5013490;28;20217;-74
2022/04/08 12:12:23;;;;;;;12.65;2.70;;;;;;;;;;5012748;28;20291;-71
2022/04/08 12:14:48;;;;;;;6.85;2.60;;;;;;;;;;5012429;28;20604;-69
2022/04/08 12:17:14;;;;;;;11.38;3.25;;;;;;;;;;5012991;28;20208;-74
2022/04/08 12:19:39;;;;;;;15.70;6.38;;;;;;;;;;5012624;28;20583;-75
2022/04/08 12:22:08;;;;;;;12.98;3.50;;;;;;;;;;5010749;28;20346;-74
2022/04/08 12:24:33;;;;;;;15.50;6.25;;;;;;;;;;5013146;28;20216;-74
2022/04/08 12:26:58;;;;;;;9.68;3.78;;;;;;;;;;5011197;28;20219;-75
2022/04/08 12:29:27;;;;;;;12.43;5.30;;;;;;;;;;5013252;28;20208;-75
2022/04/08 12:31:57;;;;;;;15.10;5.70;;;;;;;;;;5027982;28;20302;-75
2022/04/08 12:34:22;;;;;;;10.63;3.08;;;;;;;;;;5022830;28;20208;-71
2022/04/08 12:36:48;;;;;;;10.10;3.50;;;;;;;;;;5011218;28;20219;-74
2022/04/08 12:39:13;;;;;;;11.10;2.70;;;;;;;;;;5012262;28;20224;-74
2022/04/08 12:41:39;;;;;;;10.55;4.70;;;;;;;;;;5011126;28;20230;-73
2022/04/08 12:44:04;;;;;;;16.20;6.95;;;;;;;;;;5012728;28;20235;-71
2022/04/08 12:46:30;;;;;;;11.18;4.30;;;;;;;;;;5013279;28;20271;-71
2022/04/08 12:48:55;;;;;;;9.23;2.75;;;;;;;;;;5012437;28;20247;-71
2022/04/08 12:51:20;;;;;;;9.82;2.70;;;;;;;;;;5012125;28;20274;-71
2022/04/08 12:53:45;;;;;;;9.68;2.53;;;;;;;;;;5013027;28;20552;-72
2022/04/08 12:56:11;;;;;;;8.98;2.83;;;;;;;;;;5011724;28;20215;-72
2022/04/08 12:58:36;;;;;;;14.68;4.90;;;;;;;;;;5012929;28;20586;-72
2022/04/08 13:01:01;;;;;;;8.10;2.65;;;;;;;;;;5020597;28;20212;-70
2022/04/08 13:03:27;;;;;;;11.77;4.40;;;;;;;;;;5030371;28;20685;-72
2022/04/08 13:05:52;;;;;;;12.85;4.13;;;;;;;;;;5032618;28;20239;-72
2022/04/08 13:08:18;;;;;;;12.02;3.03;;;;;;;;;;5032089;28;20242;-72
2022/04/08 13:10:43;;;;;;;9.90;3.72;;;;;;;;;;5031539;28;20285;-72
2022/04/08 13:13:09;;;;;;;12.10;2.95;;;;;;;;;;5017637;28;20220;-72
2022/04/08 13:15:34;;;;;;;10.07;2.70;;;;;;;;;;5012903;28;20216;-72
2022/04/08 13:18:01;;;;;;;9.10;2.80;;;;;;;;;;5011805;28;20699;-72
2022/04/08 13:20:26;;;;;;;10.93;3.10;;;;;;;;;;5012525;28;20213;-71
2022/04/08 13:22:52;;;;;;;9.20;2.80;;;;;;;;;;5012487;28;20212;-71
2022/04/08 13:25:17;;;;;;;8.15;1.77;;;;;;;;;;5011403;28;20243;-72
2022/04/08 13:27:42;;;;;;;10.60;3.17;;;;;;;;;;5012382;28;20300;-72
2022/04/08 13:30:08;;;;;;;8.27;2.10;;;;;;;;;;5011422;28;20274;-72
2022/04/08 13:32:36;;;;;;;4.82;1.50;;;;;;;;;;5014518;28;20287;-72
2022/04/08 13:35:02;;;;;;;5.80;1.70;;;;;;;;;;5016117;28;20675;-71
2022/04/08 13:37:29;;;;;;;9.32;2.28;;;;;;;;;;5015592;28;20271;-72
2022/04/08 13:39:54;;;;;;;7.78;1.60;;;;;;;;;;5016705;28;20216;-72
2022/04/08 13:42:19;;;;;;;7.05;1.40;;;;;;;;;;5015723;28;20229;-72
2022/04/08 13:44:44;;;;;;;6.53;2.40;;;;;;;;;;5015683;28;20208;-72
2022/04/08 13:47:10;;;;;;;4.82;1.58;;;;;;;;;;5014338;28;20212;-71
2022/04/08 13:49:35;;;;;;;9.35;1.60;;;;;;;;;;5014038;28;20596;-71
2022/04/08 13:52:00;;;;;;;6.28;1.27;;;;;;;;;;5015199;28;20236;-71
2022/04/08 13:54:26;;;;;;;9.15;1.30;;;;;;;;;;5015972;28;20212;-71
2022/04/08 13:56:51;;;;;;;5.00;1.30;;;;;;;;;;5015990;28;20213;-70
2022/04/08 13:59:16;;;;;;;6.07;1.48;;;;;;;;;;5014632;28;20315;-70
2022/04/08 14:01:41;;;;;;;5.95;2.72;;;;;;;;;;5015944;28;20228;-71
2022/04/08 14:04:07;;;;;;;15.02;6.63;;;;;;;;;;5007067;28;20299;-70
2022/04/08 14:06:32;;;;;;;7.93;3.42;;;;;;;;;;4995503;28;20210;-71
2022/04/08 14:08:58;;;;;;;9.25;3.50;;;;;;;;;;4996385;28;20690;-70
2022/04/08 14:11:23;;;;;;;5.63;1.77;;;;;;;;;;4995858;28;20213;-70
2022/04/08 14:13:48;;;;;;;5.78;1.20;;;;;;;;;;5014851;28;20227;-70
2022/04/08 14:16:14;;;;;;;3.95;1.17;;;;;;;;;;5015385;28;20299;-69
2022/04/08 14:18:39;;;;;;;6.65;1.92;;;;;;;;;;5015361;28;20231;-68
2022/04/08 14:21:04;;;;;;;9.43;4.15;;;;;;;;;;5014436;28;20216;-67
2022/04/08 14:23:31;;;;;;;5.88;2.08;;;;;;;;;;5014544;28;20212;-66
2022/04/08 14:25:56;;;;;;;4.22;1.00;;;;;;;;;;5015240;28;20215;-66
2022/04/08 14:28:24;;;;;;;9.52;3.90;;;;;;;;;;5013939;28;20621;-66